sensor_id;sensor_type;location;lat;lon;timestamp;P1;durP1;ratioP1;P2;durP2;ratioP2
10463;SDS011;5279;42.048;24.638;2023-02-28T00:00:00;17.03;;;4.40;;
10463;SDS011;5279;42.048;24.638;2023-02-28T00:02:33;14.57;;;4.57;;
10463;SDS011;5279;42.048;24.638;2023-02-28T00:05:00;23.93;;;5.23;;
10463;SDS011;5279;42.048;24.638;2023-02-28T00:07:28;15.63;;;4.27;;
10463;SDS011;5279;42.048;24.638;2023-02-28T00:09:55;17.20;;;4.70;;
10463;SDS011;5279;42.048;24.638;2023-02-28T00:12:22;20.27;;;6.03;;
10463;SDS011;5279;42.048;24.638;2023-02-28T00:14:49;18.83;;;4.60;;
10463;SDS011;5279;42.048;24.638;2023-02-28T00:17:17;17.90;;;5.00;;
10463;SDS011;5279;42.048;24.638;2023-02-28T00:19:46;15.30;;;4.37;;
10463;SDS011;5279;42.048;24.638;2023-02-28T00:22:14;18.97;;;4.40;;
10463;SDS011;5279;42.048;24.638;2023-02-28T00:24:41;16.80;;;4.77;;
10463;SDS011;5279;42.048;24.638;2023-02-28T00:27:08;14.13;;;4.67;;
10463;SDS011;5279;42.048;24.638;2023-02-28T00:29:35;13.70;;;4.07;;
10463;SDS011;5279;42.048;24.638;2023-02-28T00:32:03;11.63;;;4.33;;
10463;SDS011;5279;42.048;24.638;2023-02-28T00:34:32;14.80;;;3.93;;
10463;SDS011;5279;42.048;24.638;2023-02-28T00:37:03;18.97;;;5.43;;
10463;SDS011;5279;42.048;24.638;2023-02-28T00:39:33;22.90;;;4.97;;
10463;SDS011;5279;42.048;24.638;2023-02-28T00:42:02;15.00;;;4.17;;
10463;SDS011;5279;42.048;24.638;2023-02-28T00:44:29;17.13;;;4.73;;
10463;SDS011;5279;42.048;24.638;2023-02-28T00:46:59;15.47;;;4.63;;
10463;SDS011;5279;42.048;24.638;2023-02-28T00:49:26;15.37;;;5.00;;
10463;SDS011;5279;42.048;24.638;2023-02-28T00:51:55;16.57;;;5.03;;
10463;SDS011;5279;42.048;24.638;2023-02-28T00:54:22;22.47;;;5.13;;
10463;SDS011;5279;42.048;24.638;2023-02-28T00:56:49;23.40;;;5.20;;
10463;SDS011;5279;42.048;24.638;2023-02-28T00:59:17;18.47;;;4.27;;
10463;SDS011;5279;42.048;24.638;2023-02-28T01:01:45;15.97;;;4.40;;
10463;SDS011;5279;42.048;24.638;2023-02-28T01:04:12;13.47;;;4.57;;
10463;SDS011;5279;42.048;24.638;2023-02-28T01:06:40;16.73;;;4.33;;
10463;SDS011;5279;42.048;24.638;2023-02-28T01:09:08;15.57;;;4.57;;
10463;SDS011;5279;42.048;24.638;2023-02-28T01:11:35;17.13;;;4.63;;
10463;SDS011;5279;42.048;24.638;2023-02-28T01:14:03;16.73;;;4.57;;
10463;SDS011;5279;42.048;24.638;2023-02-28T01:16:30;18.10;;;4.90;;
10463;SDS011;5279;42.048;24.638;2023-02-28T01:18:57;15.03;;;3.93;;
10463;SDS011;5279;42.048;24.638;2023-02-28T01:21:24;17.23;;;4.47;;
10463;SDS011;5279;42.048;24.638;2023-02-28T01:23:51;16.33;;;4.33;;
10463;SDS011;5279;42.048;24.638;2023-02-28T01:26:20;14.30;;;4.47;;
10463;SDS011;5279;42.048;24.638;2023-02-28T01:28:49;21.07;;;4.63;;
10463;SDS011;5279;42.048;24.638;2023-02-28T01:31:16;18.07;;;4.57;;
10463;SDS011;5279;42.048;24.638;2023-02-28T01:33:44;19.77;;;4.77;;
10463;SDS011;5279;42.048;24.638;2023-02-28T01:36:12;15.40;;;4.40;;
10463;SDS011;5279;42.048;24.638;2023-02-28T01:38:41;19.83;;;4.37;;
10463;SDS011;5279;42.048;24.638;2023-02-28T01:41:09;18.40;;;4.97;;
10463;SDS011;5279;42.048;24.638;2023-02-28T01:43:59;15.17;;;4.57;;
10463;SDS011;5279;42.048;24.638;2023-02-28T01:46:29;20.93;;;4.50;;
10463;SDS011;5279;42.048;24.638;2023-02-28T01:48:59;16.80;;;4.80;;
10463;SDS011;5279;42.048;24.638;2023-02-28T01:51:38;18.93;;;4.90;;
10463;SDS011;5279;42.048;24.638;2023-02-28T01:54:11;18.97;;;4.67;;
10463;SDS011;5279;42.048;24.638;2023-02-28T01:56:43;19.00;;;4.73;;
10463;SDS011;5279;42.048;24.638;2023-02-28T01:59:19;15.83;;;4.37;;
10463;SDS011;5279;42.048;24.638;2023-02-28T02:01:51;18.63;;;4.00;;
10463;SDS011;5279;42.048;24.638;2023-02-28T02:04:19;16.80;;;4.13;;
10463;SDS011;5279;42.048;24.638;2023-02-28T02:06:49;14.60;;;4.33;;
10463;SDS011;5279;42.048;24.638;2023-02-28T02:09:16;19.77;;;4.50;;
10463;SDS011;5279;42.048;24.638;2023-02-28T02:11:45;11.63;;;4.00;;
10463;SDS011;5279;42.048;24.638;2023-02-28T02:14:19;16.67;;;4.30;;
10463;SDS011;5279;42.048;24.638;2023-02-28T02:17:06;21.30;;;4.90;;
10463;SDS011;5279;42.048;24.638;2023-02-28T02:26:02;15.70;;;4.47;;
10463;SDS011;5279;42.048;24.638;2023-02-28T02:28:57;18.67;;;5.00;;
10463;SDS011;5279;42.048;24.638;2023-02-28T02:32:01;22.20;;;4.37;;
10463;SDS011;5279;42.048;24.638;2023-02-28T02:34:52;15.07;;;4.50;;
10463;SDS011;5279;42.048;24.638;2023-02-28T02:37:27;13.87;;;3.97;;
10463;SDS011;5279;42.048;24.638;2023-02-28T02:40:00;15.77;;;4.13;;
10463;SDS011;5279;42.048;24.638;2023-02-28T02:42:36;14.83;;;4.40;;
10463;SDS011;5279;42.048;24.638;2023-02-28T02:45:09;19.10;;;4.20;;
10463;SDS011;5279;42.048;24.638;2023-02-28T02:47:39;12.87;;;3.47;;
10463;SDS011;5279;42.048;24.638;2023-02-28T02:50:11;17.40;;;4.17;;
10463;SDS011;5279;42.048;24.638;2023-02-28T02:52:40;11.20;;;3.80;;
10463;SDS011;5279;42.048;24.638;2023-02-28T02:55:13;11.83;;;3.57;;
10463;SDS011;5279;42.048;24.638;2023-02-28T02:57:43;20.47;;;4.23;;
10463;SDS011;5279;42.048;24.638;2023-02-28T03:00:15;11.40;;;3.80;;
10463;SDS011;5279;42.048;24.638;2023-02-28T03:02:44;16.10;;;4.10;;
10463;SDS011;5279;42.048;24.638;2023-02-28T03:05:17;16.97;;;4.13;;
10463;SDS011;5279;42.048;24.638;2023-02-28T03:07:48;18.87;;;3.90;;
10463;SDS011;5279;42.048;24.638;2023-02-28T03:10:28;15.87;;;4.20;;
10463;SDS011;5279;42.048;24.638;2023-02-28T03:12:59;18.17;;;4.17;;
10463;SDS011;5279;42.048;24.638;2023-02-28T03:15:33;17.03;;;3.97;;
10463;SDS011;5279;42.048;24.638;2023-02-28T03:18:08;16.93;;;4.33;;
10463;SDS011;5279;42.048;24.638;2023-02-28T03:20:45;14.43;;;3.80;;
10463;SDS011;5279;42.048;24.638;2023-02-28T03:23:21;13.60;;;3.80;;
10463;SDS011;5279;42.048;24.638;2023-02-28T03:25:55;18.40;;;3.40;;
10463;SDS011;5279;42.048;24.638;2023-02-28T03:28:43;15.70;;;3.70;;
10463;SDS011;5279;42.048;24.638;2023-02-28T03:31:18;15.50;;;3.90;;
10463;SDS011;5279;42.048;24.638;2023-02-28T03:33:50;13.00;;;4.43;;
10463;SDS011;5279;42.048;24.638;2023-02-28T03:36:22;18.30;;;4.53;;
10463;SDS011;5279;42.048;24.638;2023-02-28T03:38:57;17.70;;;4.13;;
10463;SDS011;5279;42.048;24.638;2023-02-28T03:41:29;13.30;;;4.37;;
10463;SDS011;5279;42.048;24.638;2023-02-28T03:44:01;10.17;;;3.80;;
10463;SDS011;5279;42.048;24.638;2023-02-28T03:46:34;12.33;;;4.20;;
10463;SDS011;5279;42.048;24.638;2023-02-28T03:49:08;12.63;;;4.40;;
10463;SDS011;5279;42.048;24.638;2023-02-28T03:51:43;11.20;;;3.83;;
10463;SDS011;5279;42.048;24.638;2023-02-28T03:54:13;17.60;;;4.57;;
10463;SDS011;5279;42.048;24.638;2023-02-28T03:56:48;10.03;;;3.80;;
10463;SDS011;5279;42.048;24.638;2023-02-28T03:59:20;13.07;;;3.83;;
10463;SDS011;5279;42.048;24.638;2023-02-28T04:01:52;15.10;;;4.20;;
10463;SDS011;5279;42.048;24.638;2023-02-28T04:04:20;16.97;;;4.30;;
10463;SDS011;5279;42.048;24.638;2023-02-28T04:06:50;12.37;;;4.43;;
10463;SDS011;5279;42.048;24.638;2023-02-28T04:09:19;11.13;;;4.40;;
10463;SDS011;5279;42.048;24.638;2023-02-28T04:11:46;17.93;;;5.07;;
10463;SDS011;5279;42.048;24.638;2023-02-28T04:14:20;14.50;;;4.80;;
10463;SDS011;5279;42.048;24.638;2023-02-28T04:16:47;17.27;;;4.53;;
10463;SDS011;5279;42.048;24.638;2023-02-28T04:19:16;13.33;;;4.63;;
10463;SDS011;5279;42.048;24.638;2023-02-28T04:21:43;14.53;;;4.77;;
10463;SDS011;5279;42.048;24.638;2023-02-28T04:24:13;20.87;;;4.30;;
10463;SDS011;5279;42.048;24.638;2023-02-28T04:26:45;16.03;;;4.83;;
10463;SDS011;5279;42.048;24.638;2023-02-28T04:29:17;16.57;;;4.53;;
10463;SDS011;5279;42.048;24.638;2023-02-28T04:31:45;20.73;;;4.27;;
10463;SDS011;5279;42.048;24.638;2023-02-28T04:34:12;14.13;;;4.43;;
10463;SDS011;5279;42.048;24.638;2023-02-28T04:36:39;17.50;;;4.30;;
10463;SDS011;5279;42.048;24.638;2023-02-28T04:39:06;20.93;;;5.37;;
10463;SDS011;5279;42.048;24.638;2023-02-28T04:41:36;20.97;;;4.80;;
10463;SDS011;5279;42.048;24.638;2023-02-28T04:44:03;18.97;;;4.57;;
10463;SDS011;5279;42.048;24.638;2023-02-28T04:46:30;21.67;;;5.03;;
10463;SDS011;5279;42.048;24.638;2023-02-28T04:48:56;19.47;;;5.60;;
10463;SDS011;5279;42.048;24.638;2023-02-28T04:51:24;10.83;;;4.93;;
10463;SDS011;5279;42.048;24.638;2023-02-28T04:53:51;14.17;;;4.27;;
10463;SDS011;5279;42.048;24.638;2023-02-28T04:56:19;16.37;;;4.93;;
10463;SDS011;5279;42.048;24.638;2023-02-28T04:58:47;13.90;;;4.07;;
10463;SDS011;5279;42.048;24.638;2023-02-28T05:01:17;15.20;;;4.80;;
10463;SDS011;5279;42.048;24.638;2023-02-28T05:03:46;17.10;;;4.40;;
10463;SDS011;5279;42.048;24.638;2023-02-28T05:06:13;18.67;;;4.80;;
10463;SDS011;5279;42.048;24.638;2023-02-28T05:08:41;13.70;;;4.63;;
10463;SDS011;5279;42.048;24.638;2023-02-28T05:11:19;12.97;;;4.40;;
10463;SDS011;5279;42.048;24.638;2023-02-28T05:13:49;14.17;;;5.00;;
10463;SDS011;5279;42.048;24.638;2023-02-28T05:16:16;16.33;;;4.30;;
10463;SDS011;5279;42.048;24.638;2023-02-28T05:18:44;14.53;;;4.93;;
10463;SDS011;5279;42.048;24.638;2023-02-28T05:21:21;19.80;;;5.30;;
10463;SDS011;5279;42.048;24.638;2023-02-28T05:23:50;16.33;;;4.63;;
10463;SDS011;5279;42.048;24.638;2023-02-28T05:26:17;20.03;;;5.57;;
10463;SDS011;5279;42.048;24.638;2023-02-28T05:28:49;13.80;;;4.60;;
10463;SDS011;5279;42.048;24.638;2023-02-28T05:31:16;13.73;;;4.07;;
10463;SDS011;5279;42.048;24.638;2023-02-28T05:33:43;11.93;;;4.23;;
10463;SDS011;5279;42.048;24.638;2023-02-28T05:36:10;19.50;;;5.00;;
10463;SDS011;5279;42.048;24.638;2023-02-28T05:38:37;15.30;;;4.73;;
10463;SDS011;5279;42.048;24.638;2023-02-28T05:41:07;20.83;;;6.20;;
10463;SDS011;5279;42.048;24.638;2023-02-28T05:43:34;17.40;;;5.03;;
10463;SDS011;5279;42.048;24.638;2023-02-28T05:46:04;16.23;;;5.07;;
10463;SDS011;5279;42.048;24.638;2023-02-28T05:48:31;21.67;;;5.73;;
10463;SDS011;5279;42.048;24.638;2023-02-28T05:50:59;18.23;;;5.73;;
10463;SDS011;5279;42.048;24.638;2023-02-28T05:53:26;19.60;;;5.30;;
10463;SDS011;5279;42.048;24.638;2023-02-28T05:55:53;17.47;;;5.23;;
10463;SDS011;5279;42.048;24.638;2023-02-28T05:58:20;18.87;;;5.63;;
10463;SDS011;5279;42.048;24.638;2023-02-28T06:00:47;17.80;;;5.60;;
10463;SDS011;5279;42.048;24.638;2023-02-28T06:03:16;16.27;;;3.87;;
10463;SDS011;5279;42.048;24.638;2023-02-28T06:05:44;15.30;;;4.40;;
10463;SDS011;5279;42.048;24.638;2023-02-28T06:08:14;14.73;;;4.33;;
10463;SDS011;5279;42.048;24.638;2023-02-28T06:10:41;13.50;;;4.57;;
10463;SDS011;5279;42.048;24.638;2023-02-28T06:13:08;18.63;;;4.70;;
10463;SDS011;5279;42.048;24.638;2023-02-28T06:15:34;13.07;;;4.40;;
10463;SDS011;5279;42.048;24.638;2023-02-28T06:18:01;15.60;;;4.30;;
10463;SDS011;5279;42.048;24.638;2023-02-28T06:20:30;20.97;;;5.10;;
10463;SDS011;5279;42.048;24.638;2023-02-28T06:22:57;15.70;;;6.47;;
10463;SDS011;5279;42.048;24.638;2023-02-28T06:25:25;14.47;;;6.10;;
10463;SDS011;5279;42.048;24.638;2023-02-28T06:27:52;19.47;;;6.57;;
10463;SDS011;5279;42.048;24.638;2023-02-28T06:30:20;16.10;;;6.77;;
10463;SDS011;5279;42.048;24.638;2023-02-28T06:32:50;14.73;;;7.00;;
10463;SDS011;5279;42.048;24.638;2023-02-28T06:35:17;15.67;;;7.40;;
10463;SDS011;5279;42.048;24.638;2023-02-28T06:37:45;14.90;;;8.37;;
10463;SDS011;5279;42.048;24.638;2023-02-28T06:40:12;15.33;;;8.40;;
10463;SDS011;5279;42.048;24.638;2023-02-28T06:42:40;17.53;;;8.20;;
10463;SDS011;5279;42.048;24.638;2023-02-28T06:45:07;18.13;;;8.67;;
10463;SDS011;5279;42.048;24.638;2023-02-28T06:50:32;11.07;;;8.23;;
10463;SDS011;5279;42.048;24.638;2023-02-28T06:53:01;11.07;;;8.53;;
10463;SDS011;5279;42.048;24.638;2023-02-28T06:55:28;14.90;;;9.17;;
10463;SDS011;5279;42.048;24.638;2023-02-28T06:57:54;14.37;;;8.77;;
10463;SDS011;5279;42.048;24.638;2023-02-28T07:00:21;13.00;;;8.73;;
10463;SDS011;5279;42.048;24.638;2023-02-28T07:02:48;16.50;;;9.17;;
10463;SDS011;5279;42.048;24.638;2023-02-28T07:05:15;12.97;;;8.73;;
10463;SDS011;5279;42.048;24.638;2023-02-28T07:07:42;15.30;;;9.00;;
10463;SDS011;5279;42.048;24.638;2023-02-28T07:10:13;12.77;;;8.77;;
10463;SDS011;5279;42.048;24.638;2023-02-28T07:12:42;14.13;;;9.53;;
10463;SDS011;5279;42.048;24.638;2023-02-28T07:15:09;13.83;;;8.23;;
10463;SDS011;5279;42.048;24.638;2023-02-28T07:17:36;10.07;;;8.47;;
10463;SDS011;5279;42.048;24.638;2023-02-28T07:20:04;13.97;;;9.47;;
10463;SDS011;5279;42.048;24.638;2023-02-28T07:22:31;11.20;;;9.20;;
10463;SDS011;5279;42.048;24.638;2023-02-28T07:24:58;12.17;;;9.40;;
10463;SDS011;5279;42.048;24.638;2023-02-28T07:27:26;14.67;;;9.53;;
10463;SDS011;5279;42.048;24.638;2023-02-28T07:29:53;12.10;;;8.83;;
10463;SDS011;5279;42.048;24.638;2023-02-28T07:32:20;15.87;;;9.33;;
10463;SDS011;5279;42.048;24.638;2023-02-28T07:34:47;15.67;;;10.30;;
10463;SDS011;5279;42.048;24.638;2023-02-28T07:37:13;15.20;;;10.90;;
10463;SDS011;5279;42.048;24.638;2023-02-28T07:39:40;17.27;;;12.23;;
10463;SDS011;5279;42.048;24.638;2023-02-28T07:42:08;23.63;;;12.70;;
10463;SDS011;5279;42.048;24.638;2023-02-28T07:44:38;17.20;;;12.93;;
10463;SDS011;5279;42.048;24.638;2023-02-28T07:47:07;16.87;;;11.97;;
10463;SDS011;5279;42.048;24.638;2023-02-28T07:49:34;17.23;;;12.90;;
10463;SDS011;5279;42.048;24.638;2023-02-28T07:52:01;17.10;;;12.63;;
10463;SDS011;5279;42.048;24.638;2023-02-28T07:54:28;17.57;;;12.07;;
10463;SDS011;5279;42.048;24.638;2023-02-28T07:56:56;17.10;;;11.47;;
10463;SDS011;5279;42.048;24.638;2023-02-28T07:59:22;19.70;;;13.47;;
10463;SDS011;5279;42.048;24.638;2023-02-28T08:01:51;15.67;;;11.60;;
10463;SDS011;5279;42.048;24.638;2023-02-28T08:04:18;21.27;;;13.83;;
10463;SDS011;5279;42.048;24.638;2023-02-28T08:06:45;19.90;;;12.20;;
10463;SDS011;5279;42.048;24.638;2023-02-28T08:09:12;21.53;;;14.13;;
10463;SDS011;5279;42.048;24.638;2023-02-28T08:11:39;18.47;;;12.90;;
10463;SDS011;5279;42.048;24.638;2023-02-28T08:14:06;20.20;;;13.47;;
10463;SDS011;5279;42.048;24.638;2023-02-28T08:16:33;24.17;;;14.17;;
10463;SDS011;5279;42.048;24.638;2023-02-28T08:19:01;22.10;;;14.00;;
10463;SDS011;5279;42.048;24.638;2023-02-28T08:21:28;17.13;;;13.17;;
10463;SDS011;5279;42.048;24.638;2023-02-28T08:23:55;22.20;;;13.97;;
10463;SDS011;5279;42.048;24.638;2023-02-28T08:26:22;22.13;;;13.77;;
10463;SDS011;5279;42.048;24.638;2023-02-28T08:28:49;21.07;;;13.50;;
10463;SDS011;5279;42.048;24.638;2023-02-28T08:31:17;17.07;;;13.07;;
10463;SDS011;5279;42.048;24.638;2023-02-28T08:33:45;22.37;;;14.37;;
10463;SDS011;5279;42.048;24.638;2023-02-28T08:36:15;18.67;;;13.70;;
10463;SDS011;5279;42.048;24.638;2023-02-28T08:38:42;17.13;;;13.50;;
10463;SDS011;5279;42.048;24.638;2023-02-28T08:41:09;18.00;;;13.30;;
10463;SDS011;5279;42.048;24.638;2023-02-28T08:43:37;20.17;;;14.10;;
10463;SDS011;5279;42.048;24.638;2023-02-28T08:46:05;21.50;;;14.03;;
10463;SDS011;5279;42.048;24.638;2023-02-28T08:48:34;18.87;;;13.00;;
10463;SDS011;5279;42.048;24.638;2023-02-28T08:51:04;24.27;;;13.03;;
10463;SDS011;5279;42.048;24.638;2023-02-28T08:53:33;20.67;;;13.60;;
10463;SDS011;5279;42.048;24.638;2023-02-28T08:56:01;18.60;;;13.63;;
10463;SDS011;5279;42.048;24.638;2023-02-28T08:58:29;19.23;;;13.93;;
10463;SDS011;5279;42.048;24.638;2023-02-28T09:00:57;18.83;;;13.20;;
10463;SDS011;5279;42.048;24.638;2023-02-28T09:03:24;17.93;;;13.47;;
10463;SDS011;5279;42.048;24.638;2023-02-28T09:05:53;20.40;;;13.13;;
10463;SDS011;5279;42.048;24.638;2023-02-28T09:08:23;17.77;;;12.57;;
10463;SDS011;5279;42.048;24.638;2023-02-28T09:10:52;18.77;;;12.53;;
10463;SDS011;5279;42.048;24.638;2023-02-28T09:13:19;17.80;;;13.37;;
10463;SDS011;5279;42.048;24.638;2023-02-28T09:15:46;20.67;;;13.90;;
10463;SDS011;5279;42.048;24.638;2023-02-28T09:18:13;18.00;;;13.33;;
10463;SDS011;5279;42.048;24.638;2023-02-28T09:20:41;20.07;;;13.40;;
10463;SDS011;5279;42.048;24.638;2023-02-28T09:23:09;21.10;;;13.47;;
10463;SDS011;5279;42.048;24.638;2023-02-28T09:25:37;21.07;;;13.50;;
10463;SDS011;5279;42.048;24.638;2023-02-28T09:28:06;17.23;;;12.87;;
10463;SDS011;5279;42.048;24.638;2023-02-28T09:30:32;18.93;;;13.30;;
10463;SDS011;5279;42.048;24.638;2023-02-28T09:33:00;19.13;;;13.03;;
10463;SDS011;5279;42.048;24.638;2023-02-28T09:35:27;19.03;;;13.27;;
10463;SDS011;5279;42.048;24.638;2023-02-28T09:37:55;19.57;;;13.17;;
10463;SDS011;5279;42.048;24.638;2023-02-28T09:40:23;22.47;;;14.00;;
10463;SDS011;5279;42.048;24.638;2023-02-28T09:42:52;19.57;;;13.23;;
10463;SDS011;5279;42.048;24.638;2023-02-28T09:45:42;18.80;;;14.30;;
10463;SDS011;5279;42.048;24.638;2023-02-28T09:48:16;22.43;;;15.83;;
10463;SDS011;5279;42.048;24.638;2023-02-28T09:50:48;22.50;;;15.07;;
10463;SDS011;5279;42.048;24.638;2023-02-28T09:53:19;19.13;;;14.53;;
10463;SDS011;5279;42.048;24.638;2023-02-28T09:55:54;18.50;;;13.30;;
10463;SDS011;5279;42.048;24.638;2023-02-28T09:58:26;18.97;;;15.10;;
10463;SDS011;5279;42.048;24.638;2023-02-28T10:00:59;20.43;;;14.77;;
10463;SDS011;5279;42.048;24.638;2023-02-28T10:03:30;17.87;;;13.70;;
10463;SDS011;5279;42.048;24.638;2023-02-28T10:06:03;19.30;;;13.97;;
10463;SDS011;5279;42.048;24.638;2023-02-28T10:08:38;20.33;;;13.63;;
10463;SDS011;5279;42.048;24.638;2023-02-28T10:11:20;21.87;;;14.10;;
10463;SDS011;5279;42.048;24.638;2023-02-28T10:13:51;20.63;;;13.87;;
10463;SDS011;5279;42.048;24.638;2023-02-28T10:16:25;18.37;;;14.53;;
10463;SDS011;5279;42.048;24.638;2023-02-28T10:19:01;19.97;;;14.80;;
10463;SDS011;5279;42.048;24.638;2023-02-28T10:21:34;20.00;;;15.07;;
10463;SDS011;5279;42.048;24.638;2023-02-28T10:24:10;20.40;;;15.00;;
10463;SDS011;5279;42.048;24.638;2023-02-28T10:26:43;22.33;;;15.70;;
10463;SDS011;5279;42.048;24.638;2023-02-28T10:29:12;19.13;;;13.70;;
10463;SDS011;5279;42.048;24.638;2023-02-28T10:31:41;23.90;;;15.17;;
10463;SDS011;5279;42.048;24.638;2023-02-28T10:34:10;21.23;;;16.07;;
10463;SDS011;5279;42.048;24.638;2023-02-28T10:36:39;22.53;;;16.53;;
10463;SDS011;5279;42.048;24.638;2023-02-28T10:42:18;22.47;;;17.37;;
10463;SDS011;5279;42.048;24.638;2023-02-28T10:44:47;22.17;;;17.53;;
10463;SDS011;5279;42.048;24.638;2023-02-28T10:47:16;21.93;;;16.77;;
10463;SDS011;5279;42.048;24.638;2023-02-28T10:49:47;23.23;;;17.80;;
10463;SDS011;5279;42.048;24.638;2023-02-28T10:52:32;24.27;;;17.57;;
10463;SDS011;5279;42.048;24.638;2023-02-28T10:55:15;24.07;;;17.73;;
10463;SDS011;5279;42.048;24.638;2023-02-28T10:57:47;25.47;;;18.27;;
10463;SDS011;5279;42.048;24.638;2023-02-28T11:00:15;26.97;;;18.87;;
10463;SDS011;5279;42.048;24.638;2023-02-28T11:02:46;30.83;;;19.97;;
10463;SDS011;5279;42.048;24.638;2023-02-28T11:05:23;30.00;;;19.03;;
10463;SDS011;5279;42.048;24.638;2023-02-28T11:07:52;25.83;;;19.50;;
10463;SDS011;5279;42.048;24.638;2023-02-28T11:10:20;26.97;;;18.70;;
10463;SDS011;5279;42.048;24.638;2023-02-28T11:12:53;24.13;;;19.37;;
10463;SDS011;5279;42.048;24.638;2023-02-28T11:15:22;30.93;;;20.10;;
10463;SDS011;5279;42.048;24.638;2023-02-28T11:17:56;26.03;;;19.43;;
10463;SDS011;5279;42.048;24.638;2023-02-28T11:20:26;24.67;;;19.60;;
10463;SDS011;5279;42.048;24.638;2023-02-28T11:22:55;29.53;;;20.30;;
10463;SDS011;5279;42.048;24.638;2023-02-28T11:25:25;30.63;;;21.17;;
10463;SDS011;5279;42.048;24.638;2023-02-28T11:27:56;27.27;;;20.13;;
10463;SDS011;5279;42.048;24.638;2023-02-28T11:30:27;27.47;;;20.47;;
10463;SDS011;5279;42.048;24.638;2023-02-28T11:32:59;28.10;;;20.90;;
10463;SDS011;5279;42.048;24.638;2023-02-28T11:35:28;30.70;;;21.97;;
10463;SDS011;5279;42.048;24.638;2023-02-28T11:37:57;33.63;;;21.93;;
10463;SDS011;5279;42.048;24.638;2023-02-28T11:40:27;34.07;;;22.67;;
10463;SDS011;5279;42.048;24.638;2023-02-28T11:43:13;28.53;;;21.77;;
10463;SDS011;5279;42.048;24.638;2023-02-28T11:45:55;32.90;;;22.60;;
10463;SDS011;5279;42.048;24.638;2023-02-28T11:48:36;30.60;;;22.30;;
10463;SDS011;5279;42.048;24.638;2023-02-28T11:51:17;26.20;;;21.87;;
10463;SDS011;5279;42.048;24.638;2023-02-28T11:53:57;29.63;;;22.33;;
10463;SDS011;5279;42.048;24.638;2023-02-28T11:56:36;28.30;;;22.13;;
10463;SDS011;5279;42.048;24.638;2023-02-28T11:59:10;31.73;;;21.77;;
10463;SDS011;5279;42.048;24.638;2023-02-28T12:02:03;35.07;;;22.43;;
10463;SDS011;5279;42.048;24.638;2023-02-28T12:04:47;31.10;;;23.03;;
10463;SDS011;5279;42.048;24.638;2023-02-28T12:07:25;32.23;;;22.77;;
10463;SDS011;5279;42.048;24.638;2023-02-28T12:10:05;29.30;;;22.40;;
10463;SDS011;5279;42.048;24.638;2023-02-28T12:12:45;31.13;;;22.90;;
10463;SDS011;5279;42.048;24.638;2023-02-28T12:15:31;33.47;;;22.20;;
10463;SDS011;5279;42.048;24.638;2023-02-28T12:18:26;29.87;;;23.40;;
10463;SDS011;5279;42.048;24.638;2023-02-28T12:21:08;28.63;;;23.27;;
10463;SDS011;5279;42.048;24.638;2023-02-28T12:23:44;32.43;;;22.90;;
10463;SDS011;5279;42.048;24.638;2023-02-28T12:26:26;31.70;;;23.83;;
10463;SDS011;5279;42.048;24.638;2023-02-28T12:29:01;31.30;;;24.30;;
10463;SDS011;5279;42.048;24.638;2023-02-28T12:31:36;31.97;;;25.07;;
10463;SDS011;5279;42.048;24.638;2023-02-28T12:34:09;32.67;;;23.87;;
10463;SDS011;5279;42.048;24.638;2023-02-28T12:36:41;37.70;;;24.17;;
10463;SDS011;5279;42.048;24.638;2023-02-28T12:39:10;32.23;;;23.30;;
10463;SDS011;5279;42.048;24.638;2023-02-28T12:41:43;36.80;;;23.63;;
10463;SDS011;5279;42.048;24.638;2023-02-28T12:44:15;31.23;;;24.43;;
10463;SDS011;5279;42.048;24.638;2023-02-28T12:46:46;35.83;;;24.43;;
10463;SDS011;5279;42.048;24.638;2023-02-28T12:49:17;29.30;;;23.27;;
10463;SDS011;5279;42.048;24.638;2023-02-28T12:51:52;32.63;;;23.93;;
10463;SDS011;5279;42.048;24.638;2023-02-28T12:54:21;38.97;;;23.77;;
10463;SDS011;5279;42.048;24.638;2023-02-28T12:56:54;30.80;;;23.97;;
10463;SDS011;5279;42.048;24.638;2023-02-28T12:59:30;33.73;;;25.60;;
10463;SDS011;5279;42.048;24.638;2023-02-28T13:02:09;31.03;;;23.17;;
10463;SDS011;5279;42.048;24.638;2023-02-28T13:05:01;42.63;;;31.87;;
10463;SDS011;5279;42.048;24.638;2023-02-28T13:08:03;29.83;;;23.23;;
10463;SDS011;5279;42.048;24.638;2023-02-28T13:10:38;35.17;;;23.90;;
10463;SDS011;5279;42.048;24.638;2023-02-28T13:13:11;27.67;;;23.10;;
10463;SDS011;5279;42.048;24.638;2023-02-28T13:15:49;32.03;;;24.93;;
10463;SDS011;5279;42.048;24.638;2023-02-28T13:18:27;32.10;;;24.60;;
10463;SDS011;5279;42.048;24.638;2023-02-28T13:20:56;31.17;;;23.40;;
10463;SDS011;5279;42.048;24.638;2023-02-28T13:23:56;29.97;;;25.23;;
10463;SDS011;5279;42.048;24.638;2023-02-28T13:29:36;31.30;;;25.30;;
10463;SDS011;5279;42.048;24.638;2023-02-28T13:35:14;33.07;;;23.77;;
10463;SDS011;5279;42.048;24.638;2023-02-28T13:40:57;32.03;;;24.10;;
10463;SDS011;5279;42.048;24.638;2023-02-28T13:44:08;30.83;;;24.23;;
10463;SDS011;5279;42.048;24.638;2023-02-28T13:49:37;33.53;;;22.33;;
10463;SDS011;5279;42.048;24.638;2023-02-28T13:52:09;27.13;;;22.93;;
10463;SDS011;5279;42.048;24.638;2023-02-28T13:54:44;27.40;;;22.43;;
10463;SDS011;5279;42.048;24.638;2023-02-28T13:57:38;27.20;;;23.27;;
10463;SDS011;5279;42.048;24.638;2023-02-28T14:00:16;24.63;;;21.43;;
10463;SDS011;5279;42.048;24.638;2023-02-28T14:03:03;30.60;;;21.33;;
10463;SDS011;5279;42.048;24.638;2023-02-28T14:05:37;25.03;;;21.17;;
10463;SDS011;5279;42.048;24.638;2023-02-28T14:08:05;27.67;;;21.07;;
10463;SDS011;5279;42.048;24.638;2023-02-28T14:10:39;28.40;;;21.67;;
10463;SDS011;5279;42.048;24.638;2023-02-28T14:13:14;26.00;;;20.10;;
10463;SDS011;5279;42.048;24.638;2023-02-28T14:16:09;29.10;;;20.67;;
10463;SDS011;5279;42.048;24.638;2023-02-28T14:18:37;27.07;;;19.17;;
10463;SDS011;5279;42.048;24.638;2023-02-28T14:21:11;24.90;;;19.87;;
10463;SDS011;5279;42.048;24.638;2023-02-28T14:23:50;26.00;;;20.07;;
10463;SDS011;5279;42.048;24.638;2023-02-28T14:26:48;23.47;;;19.33;;
10463;SDS011;5279;42.048;24.638;2023-02-28T14:29:41;29.23;;;21.30;;
10463;SDS011;5279;42.048;24.638;2023-02-28T14:32:23;24.10;;;18.20;;
10463;SDS011;5279;42.048;24.638;2023-02-28T14:34:58;21.00;;;18.37;;
10463;SDS011;5279;42.048;24.638;2023-02-28T14:37:38;21.80;;;17.87;;
10463;SDS011;5279;42.048;24.638;2023-02-28T14:40:12;22.53;;;17.30;;
10463;SDS011;5279;42.048;24.638;2023-02-28T14:42:46;22.33;;;17.53;;
10463;SDS011;5279;42.048;24.638;2023-02-28T14:45:19;21.17;;;18.13;;
10463;SDS011;5279;42.048;24.638;2023-02-28T14:47:48;19.77;;;16.10;;
10463;SDS011;5279;42.048;24.638;2023-02-28T14:50:17;21.70;;;17.13;;
10463;SDS011;5279;42.048;24.638;2023-02-28T14:52:46;21.13;;;17.07;;
10463;SDS011;5279;42.048;24.638;2023-02-28T14:55:14;20.83;;;17.07;;
10463;SDS011;5279;42.048;24.638;2023-02-28T14:57:50;18.93;;;14.63;;
10463;SDS011;5279;42.048;24.638;2023-02-28T15:00:23;16.73;;;14.53;;
10463;SDS011;5279;42.048;24.638;2023-02-28T15:02:51;20.70;;;17.30;;
10463;SDS011;5279;42.048;24.638;2023-02-28T15:05:23;17.00;;;15.20;;
10463;SDS011;5279;42.048;24.638;2023-02-28T15:08:03;17.50;;;15.40;;
10463;SDS011;5279;42.048;24.638;2023-02-28T15:10:32;16.83;;;13.63;;
10463;SDS011;5279;42.048;24.638;2023-02-28T15:13:00;18.30;;;14.70;;
10463;SDS011;5279;42.048;24.638;2023-02-28T15:15:35;13.73;;;12.33;;
10463;SDS011;5279;42.048;24.638;2023-02-28T15:18:10;13.67;;;12.07;;